Time;durP1;ratioP1;P1;durP2;ratioP2;P2;SDS_P1;SDS_P2;PMS_P1;PMS_P2;Temp;Humidity;BMP_temperature;BMP_pressure;BME280_temperature;BME280_humidity;BME280_pressure;Samples;Min_cycle;Max_cycle;Signal;HPM_P1;HPM_P2
2021/12/05 00:20:23;;;;;;;11.80;2.20;;;;;;;5.88;69.31;95392.72;5071576;28;20455;-68
2021/12/05 00:22:47;;;;;;;4.70;2.27;;;;;;;6.11;68.63;95387.63;5069818;28;20437;-67
2021/12/05 00:25:20;;;;;;;6.87;2.23;;;;;;;6.24;68.20;95393.09;5065369;28;20421;-67
2021/12/05 00:27:53;;;;;;;8.00;2.40;;;;;;;6.28;67.96;95386.59;5071779;28;20822;-67
2021/12/05 00:47:03;;;;;;;5.00;2.30;;;;;;;6.39;67.32;95392.41;5070911;28;20822;-69
2021/12/05 00:49:55;;;;;;;4.80;2.10;;;;;;;6.42;67.10;95389.47;5065709;28;20441;-68
2021/12/05 00:55:31;;;;;;;3.00;2.00;;;;;;;5.88;68.48;95395.31;5059655;28;20412;-68
2021/12/05 01:01:17;;;;;;;6.30;2.60;;;;;;;6.26;67.12;95396.34;5071020;28;20413;-67
2021/12/05 01:16:42;;;;;;;5.10;2.13;;;;;;;6.43;65.90;95396.25;5074529;28;20412;-72
2021/12/05 01:19:09;;;;;;;11.70;2.20;;;;;;;6.26;66.17;95401.56;5075610;28;20525;-69
2021/12/05 01:21:37;;;;;;;3.93;1.90;;;;;;;6.39;66.31;95400.19;5070752;28;20437;-67
2021/12/05 01:24:15;;;;;;;4.40;1.83;;;;;;;6.35;66.09;95398.91;5063186;28;20499;-69
2021/12/05 01:37:10;;;;;;;4.50;2.07;;;;;;;6.16;66.74;95411.34;5060396;28;20433;-67
2021/12/05 01:57:55;;;;;;;8.73;2.03;;;;;;;6.00;66.80;95412.19;5073858;28;20532;-68
2021/12/05 02:43:42;;;;;;;2.40;1.50;;;;;;;5.36;69.27;95385.19;5042175;28;20405;-68
2021/12/05 02:46:09;;;;;;;3.10;1.67;;;;;;;5.65;68.38;95383.84;5039523;28;20417;-66
2021/12/05 02:48:37;;;;;;;6.50;1.90;;;;;;;5.45;69.26;95382.56;5070387;28;20413;-67
2021/12/05 02:51:09;;;;;;;4.03;2.30;;;;;;;5.40;69.08;95375.28;5072579;28;20432;-68
2021/12/05 02:53:42;;;;;;;2.13;1.53;;;;;;;5.53;69.00;95375.59;5052835;28;20768;-67
2021/12/05 02:56:09;;;;;;;6.77;1.70;;;;;;;5.42;68.97;95377.72;5058770;28;20938;-67
2021/12/05 02:58:49;;;;;;;5.60;1.87;;;;;;;5.33;69.01;95379.53;5073000;28;20459;-66
2021/12/05 03:01:35;;;;;;;7.43;2.03;;;;;;;5.24;69.55;95368.31;5072642;28;20480;-67
2021/12/05 03:04:01;;;;;;;4.70;1.60;;;;;;;5.16;69.70;95373.53;5073248;28;20440;-67
2021/12/05 03:06:30;;;;;;;3.20;1.90;;;;;;;5.37;68.80;95366.03;5054601;28;20428;-68
2021/12/05 03:09:12;;;;;;;7.77;2.10;;;;;;;5.53;68.17;95367.00;5072356;28;20891;-67
2021/12/05 03:11:38;;;;;;;8.80;2.03;;;;;;;5.36;68.65;95368.78;5072576;28;20802;-69
2021/12/05 03:14:04;;;;;;;5.40;2.13;;;;;;;5.42;69.11;95364.75;5072787;28;20409;-69
2021/12/05 03:16:31;;;;;;;3.90;2.20;;;;;;;5.14;69.72;95360.69;5072772;28;20175;-68
2021/12/05 03:18:56;;;;;;;3.97;1.47;;;;;;;5.28;69.22;95363.59;5055703;28;20187;-67
2021/12/05 03:21:22;;;;;;;4.40;2.13;;;;;;;5.38;68.07;95369.44;5071027;28;20489;-68
2021/12/05 03:23:51;;;;;;;5.87;1.80;;;;;;;5.51;68.19;95361.13;5068020;28;20263;-67
2021/12/05 03:26:21;;;;;;;8.80;1.73;;;;;;;5.50;68.28;95364.72;5071257;28;20876;-68
2021/12/05 03:28:49;;;;;;;2.90;1.80;;;;;;;5.06;68.97;95371.88;5072481;28;20413;-67
2021/12/05 03:31:15;;;;;;;6.70;1.77;;;;;;;5.47;68.49;95365.03;5072257;28;20463;-67
2021/12/05 03:33:41;;;;;;;4.80;1.77;;;;;;;5.54;68.12;95371.22;5072254;28;20439;-66
2021/12/05 03:36:09;;;;;;;3.43;1.53;;;;;;;5.50;67.66;95365.50;5072510;28;20424;-67
2021/12/05 03:38:36;;;;;;;6.40;1.97;;;;;;;5.45;67.82;95356.59;5072465;28;20285;-67
2021/12/05 03:41:04;;;;;;;4.77;1.70;;;;;;;5.49;67.65;95345.69;5072264;28;20428;-69
2021/12/05 03:43:31;;;;;;;4.87;2.20;;;;;;;5.40;67.35;95341.50;5071971;28;21194;-69
2021/12/05 03:45:58;;;;;;;5.80;1.93;;;;;;;5.46;67.12;95337.44;5060754;28;20549;-68
2021/12/05 03:48:28;;;;;;;10.57;2.13;;;;;;;5.15;68.01;95336.34;5060812;28;20443;-68
2021/12/05 03:50:55;;;;;;;6.77;2.33;;;;;;;5.31;67.69;95332.13;5072014;28;20421;-69
2021/12/05 03:53:22;;;;;;;6.10;1.80;;;;;;;5.13;68.57;95324.50;5055450;28;20409;-68
2021/12/05 03:55:51;;;;;;;4.70;1.90;;;;;;;4.79;69.12;95325.50;5069199;28;20984;-67
2021/12/05 03:58:17;;;;;;;6.00;1.77;;;;;;;4.83;69.24;95330.22;5071587;28;20449;-71
2021/12/05 04:00:45;;;;;;;4.97;1.87;;;;;;;5.23;68.03;95338.13;5071095;28;20555;-69
2021/12/05 04:03:15;;;;;;;7.50;1.90;;;;;;;5.27;66.90;95334.25;5070679;28;20416;-69
2021/12/05 04:05:41;;;;;;;9.43;1.50;;;;;;;5.23;67.73;95332.94;5070508;28;20409;-69
2021/12/05 04:08:10;;;;;;;3.93;1.70;;;;;;;5.14;68.01;95341.72;5071736;28;20412;-69
2021/12/05 04:10:38;;;;;;;2.20;1.67;;;;;;;5.00;68.33;95344.00;5071419;28;20585;-69
2021/12/05 04:13:04;;;;;;;10.53;2.13;;;;;;;5.15;68.68;95345.94;5053095;28;20761;-69
2021/12/05 04:15:30;;;;;;;4.03;1.97;;;;;;;5.48;67.29;95340.69;5054833;28;20500;-69
2021/12/05 04:17:56;;;;;;;4.80;1.80;;;;;;;5.72;66.50;95346.78;5060074;28;20217;-69
2021/12/05 04:20:21;;;;;;;4.97;1.57;;;;;;;5.62;66.81;95344.38;5059713;28;20170;-67
2021/12/05 04:22:48;;;;;;;5.33;1.67;;;;;;;5.71;66.71;95350.34;5054281;28;20252;-67
2021/12/05 04:25:16;;;;;;;2.73;1.60;;;;;;;5.75;66.46;95351.66;5051621;28;20483;-69
2021/12/05 04:27:44;;;;;;;5.97;1.67;;;;;;;5.87;66.12;95349.50;5052064;28;20974;-69
2021/12/05 04:30:11;;;;;;;7.07;1.90;;;;;;;5.89;66.23;95358.75;5058015;28;20424;-68
2021/12/05 04:32:37;;;;;;;3.83;1.40;;;;;;;5.89;66.74;95344.94;5049983;28;20479;-66
2021/12/05 04:35:03;;;;;;;5.60;1.97;;;;;;;5.93;66.15;95343.63;5051219;28;20402;-69
2021/12/05 04:37:29;;;;;;;5.70;2.20;;;;;;;5.97;65.88;95345.72;5051130;28;20201;-68
2021/12/05 04:39:55;;;;;;;3.97;1.97;;;;;;;6.06;65.46;95354.34;5051281;28;20453;-69
2021/12/05 04:42:22;;;;;;;5.20;1.10;;;;;;;5.67;66.57;95353.28;5051332;28;20198;-68
2021/12/05 04:44:49;;;;;;;5.50;1.93;;;;;;;5.71;66.72;95361.59;5044887;28;20586;-68
2021/12/05 04:47:18;;;;;;;2.07;1.30;;;;;;;5.80;65.97;95365.78;5051143;28;20521;-69
2021/12/05 04:49:46;;;;;;;4.60;1.83;;;;;;;5.62;66.49;95365.16;5058903;28;20417;-68
2021/12/05 04:52:14;;;;;;;5.20;1.93;;;;;;;5.21;67.69;95366.88;5050834;28;20441;-68
2021/12/05 04:54:42;;;;;;;4.27;2.07;;;;;;;5.03;68.35;95369.66;5050723;28;20949;-68
2021/12/05 04:57:09;;;;;;;6.30;2.23;;;;;;;4.56;70.83;95376.25;5051785;28;21132;-67
2021/12/05 04:59:37;;;;;;;1.90;1.50;;;;;;;4.85;70.52;95374.97;5051502;28;20465;-69
2021/12/05 05:02:07;;;;;;;4.80;1.90;;;;;;;4.68;70.27;95365.56;5041753;28;20512;-68
2021/12/05 05:04:42;;;;;;;1.67;1.40;;;;;;;4.72;70.07;95362.47;5050767;28;20772;-69
2021/12/05 05:07:15;;;;;;;6.47;1.63;;;;;;;4.92;69.12;95367.34;5044143;28;20409;-68
2021/12/05 05:09:52;;;;;;;2.90;1.47;;;;;;;4.92;69.44;95362.16;5051772;28;20425;-68
2021/12/05 05:12:19;;;;;;;5.73;1.83;;;;;;;4.33;71.09;95362.25;5057105;28;20889;-68
2021/12/05 05:14:47;;;;;;;3.80;2.00;;;;;;;4.84;70.33;95357.78;5045697;28;20753;-67
2021/12/05 05:17:14;;;;;;;3.60;1.63;;;;;;;5.07;69.63;95360.53;5057837;28;20455;-69
2021/12/05 05:19:47;;;;;;;3.77;1.63;;;;;;;5.11;69.19;95355.03;5063686;28;20980;-67
2021/12/05 05:51:45;;;;;;;3.30;1.70;;;;;;;4.59;69.92;95357.78;5050388;28;20449;-68
2021/12/05 05:54:12;;;;;;;3.30;1.37;;;;;;;4.53;70.39;95352.41;5048917;28;20509;-69
2021/12/05 05:56:42;;;;;;;6.30;1.77;;;;;;;4.53;70.40;95350.63;5050439;28;20487;-68
2021/12/05 06:04:36;;;;;;;4.53;1.67;;;;;;;4.38;70.96;95355.63;5071237;28;20996;-67
2021/12/05 06:07:03;;;;;;;4.83;2.00;;;;;;;4.28;71.27;95357.53;5071352;28;21002;-68
2021/12/05 06:09:30;;;;;;;1.27;1.10;;;;;;;4.24;71.48;95359.63;5071137;28;20417;-66
2021/12/05 06:11:57;;;;;;;2.27;1.27;;;;;;;4.06;72.09;95359.72;5071053;28;20455;-68
2021/12/05 06:14:28;;;;;;;2.47;1.40;;;;;;;4.20;71.25;95349.72;5067128;28;20856;-69
2021/12/05 06:16:58;;;;;;;2.73;1.73;;;;;;;3.80;72.39;95357.22;5071113;28;20823;-69
2021/12/05 06:19:27;;;;;;;8.83;1.40;;;;;;;4.35;71.65;95361.13;5070336;28;20595;-69
2021/12/05 06:21:53;;;;;;;1.57;1.47;;;;;;;3.86;71.99;95351.38;5074219;28;20439;-66
2021/12/05 06:24:23;;;;;;;4.60;1.60;;;;;;;4.11;72.36;95367.03;5067919;28;20432;-68
2021/12/05 06:26:53;;;;;;;2.93;1.73;;;;;;;3.93;72.11;95370.53;5081329;28;20773;-70
2021/12/05 06:29:22;;;;;;;1.60;1.50;;;;;;;4.28;71.14;95367.91;5091089;28;20473;-68
2021/12/05 06:32:15;;;;;;;5.13;1.63;;;;;;;4.37;71.22;95374.75;5082760;28;20444;-68
2021/12/05 06:37:42;;;;;;;2.47;1.70;;;;;;;4.50;70.29;95373.47;5089921;28;20471;-68
2021/12/05 06:40:22;;;;;;;4.03;1.50;;;;;;;4.24;70.75;95369.19;5057744;28;20421;-67
2021/12/05 06:42:59;;;;;;;8.00;1.83;;;;;;;4.48;69.86;95371.03;5073364;28;20523;-69
2021/12/05 06:48:14;;;;;;;2.90;1.80;;;;;;;4.25;70.61;95357.84;5070798;28;20751;-66
2021/12/05 06:50:44;;;;;;;8.23;2.23;;;;;;;4.17;72.11;95363.00;5071391;28;20800;-70
2021/12/05 06:53:13;;;;;;;4.50;1.60;;;;;;;3.99;71.88;95371.69;5073639;28;20929;-68
2021/12/05 06:55:39;;;;;;;2.60;1.50;;;;;;;4.19;71.16;95361.06;5059317;28;20504;-69
2021/12/05 06:58:06;;;;;;;5.17;1.90;;;;;;;4.05;71.70;95360.69;5065461;28;20937;-69
2021/12/05 07:00:33;;;;;;;2.80;1.47;;;;;;;3.87;72.40;95362.59;5072793;28;20186;-69
2021/12/05 07:03:00;;;;;;;4.77;1.70;;;;;;;4.11;72.07;95356.66;5073504;28;20463;-67
2021/12/05 07:08:16;;;;;;;5.83;1.30;;;;;;;4.06;71.43;95364.13;5072815;28;20420;-68
2021/12/05 07:18:46;;;;;;;3.80;1.60;;;;;;;4.22;71.30;95356.38;5064458;28;20478;-67
2021/12/05 07:40:23;;;;;;;5.70;1.70;;;;;;;4.63;69.26;95391.16;5072027;28;20409;-68
2021/12/05 07:42:52;;;;;;;1.70;1.50;;;;;;;4.44;70.28;95387.91;5070515;28;20440;-68
2021/12/05 07:45:26;;;;;;;5.20;1.50;;;;;;;4.57;69.89;95387.41;5072162;28;20427;-67
2021/12/05 07:47:55;;;;;;;1.50;1.23;;;;;;;4.38;70.08;95381.56;5070600;28;20424;-68
2021/12/05 07:50:38;;;;;;;5.13;1.60;;;;;;;4.23;71.33;95377.94;5072956;28;20451;-66
2021/12/05 07:53:10;;;;;;;4.60;2.10;;;;;;;4.40;70.86;95389.16;5063971;28;20741;-68
2021/12/05 07:55:41;;;;;;;4.90;2.60;;;;;;;4.61;69.92;95391.31;5058052;28;20807;-69
2021/12/05 07:58:29;;;;;;;4.63;2.30;;;;;;;4.70;69.72;95394.75;5065030;28;20444;-68
2021/12/05 08:14:53;;;;;;;2.63;1.77;;;;;;;4.85;68.97;95387.16;5069195;28;20428;-67
2021/12/05 08:17:21;;;;;;;6.90;1.93;;;;;;;4.99;68.80;95394.28;5070392;28;20429;-68
2021/12/05 08:19:48;;;;;;;5.80;2.00;;;;;;;5.15;68.68;95393.47;5070580;28;20461;-71
2021/12/05 08:22:16;;;;;;;4.87;1.90;;;;;;;5.25;68.48;95395.09;5068145;28;20436;-69
2021/12/05 08:24:47;;;;;;;4.60;1.77;;;;;;;5.05;68.09;95404.03;5056335;28;21138;-68
2021/12/05 08:27:15;;;;;;;3.87;1.83;;;;;;;5.14;68.26;95402.25;5072785;28;20413;-69
2021/12/05 08:29:49;;;;;;;3.80;2.00;;;;;;;5.30;68.66;95396.22;5072160;28;20419;-69
2021/12/05 09:08:36;;;;;;;4.80;2.50;;;;;;;5.46;67.36;95394.59;5056953;28;20420;-68
2021/12/05 10:02:45;;;;;;;2.70;1.27;;;;;;;7.46;60.72;95402.06;5069687;28;20841;-68
2021/12/05 10:10:53;;;;;;;4.27;1.50;;;;;;;7.96;59.17;95394.56;5080228;28;20428;-66
2021/12/05 10:38:09;;;;;;;1.80;1.40;;;;;;;8.60;57.19;95374.06;5073342;28;20463;-68
2021/12/05 10:40:44;;;;;;;2.23;1.30;;;;;;;8.18;57.75;95370.34;5066070;28;20439;-68
2021/12/05 10:43:15;;;;;;;2.13;1.20;;;;;;;8.31;57.33;95357.47;5063798;28;20442;-68
2021/12/05 10:45:49;;;;;;;3.13;1.40;;;;;;;8.49;57.38;95364.94;5068370;28;20428;-68
2021/12/05 10:48:25;;;;;;;1.67;1.10;;;;;;;8.48;57.15;95363.31;5069691;28;20420;-70
2021/12/05 10:50:55;;;;;;;3.37;1.33;;;;;;;7.53;58.50;95365.66;5072995;28;20436;-67
2021/12/05 10:54:02;;;;;;;1.90;1.30;;;;;;;7.45;58.39;95356.13;5067064;28;20457;-68
2021/12/05 10:56:32;;;;;;;4.57;1.47;;;;;;;7.62;57.95;95361.19;5069116;28;20421;-68
2021/12/05 10:59:04;;;;;;;1.63;0.97;;;;;;;7.72;57.71;95353.09;5072740;28;20927;-68
2021/12/05 11:01:35;;;;;;;2.13;1.33;;;;;;;7.92;56.81;95359.38;5071817;28;20848;-70
2021/12/05 11:04:06;;;;;;;2.87;1.37;;;;;;;8.04;56.39;95349.31;5056938;28;20417;-67
2021/12/05 11:06:42;;;;;;;1.67;1.30;;;;;;;7.11;58.59;95354.81;5072933;28;20416;-69
2021/12/05 11:09:15;;;;;;;1.53;1.00;;;;;;;7.00;59.66;95353.41;5072528;28;20902;-69
2021/12/05 11:11:46;;;;;;;2.87;1.30;;;;;;;7.15;59.53;95350.88;5064588;28;20420;-67
2021/12/05 11:14:22;;;;;;;2.00;1.20;;;;;;;6.85;59.80;95345.56;5072902;28;20894;-68
2021/12/05 11:16:54;;;;;;;2.57;1.53;;;;;;;6.78;59.60;95352.47;5072663;28;20423;-69
2021/12/05 11:19:36;;;;;;;3.00;1.10;;;;;;;6.30;61.25;95345.59;5072227;28;21041;-68
2021/12/05 11:22:31;;;;;;;2.77;1.30;;;;;;;6.78;60.08;95349.03;5051500;28;20436;-69
2021/12/05 11:25:12;;;;;;;2.93;1.30;;;;;;;6.70;59.75;95352.50;5058148;28;20452;-69
2021/12/05 11:27:43;;;;;;;2.50;1.60;;;;;;;6.51;60.65;95341.56;5072158;28;20758;-67
2021/12/05 11:30:13;;;;;;;4.00;2.03;;;;;;;6.43;61.11;95339.00;5067740;28;20453;-70
2021/12/05 11:32:48;;;;;;;1.83;1.20;;;;;;;6.51;61.19;95341.56;5069135;28;20471;-70
2021/12/05 11:35:33;;;;;;;3.43;1.30;;;;;;;6.28;62.00;95338.94;5065381;28;20408;-69
2021/12/05 11:38:23;;;;;;;3.30;1.63;;;;;;;6.62;61.45;95340.34;5064205;28;20555;-67
2021/12/05 11:40:50;;;;;;;3.23;1.30;;;;;;;6.37;61.94;95339.72;5070295;28;20421;-66
2021/12/05 11:43:21;;;;;;;5.43;2.03;;;;;;;6.03;62.50;95339.06;5066297;28;20834;-69
2021/12/05 11:46:12;;;;;;;5.37;1.90;;;;;;;6.48;60.98;95335.91;5072242;28;20914;-68
2021/12/05 11:48:48;;;;;;;4.30;3.23;;;;;;;6.89;60.28;95335.59;5068847;28;21053;-68
2021/12/05 11:51:47;;;;;;;2.67;1.77;;;;;;;6.81;60.73;95336.47;5065589;28;20443;-68
2021/12/05 11:54:16;;;;;;;4.97;1.47;;;;;;;6.43;62.07;95342.44;5049818;28;20905;-66
2021/12/05 11:56:57;;;;;;;2.80;1.60;;;;;;;6.94;61.32;95335.06;5066645;28;20474;-67
2021/12/05 11:59:26;;;;;;;2.60;1.27;;;;;;;6.64;62.15;95346.19;5071500;28;20452;-68
2021/12/05 12:01:59;;;;;;;3.93;1.20;;;;;;;6.28;62.85;95338.94;5063775;28;20523;-67
2021/12/05 12:04:46;;;;;;;3.33;1.57;;;;;;;5.96;63.55;95344.09;5057644;28;20805;-67
2021/12/05 12:07:24;;;;;;;3.70;2.07;;;;;;;6.70;62.50;95339.50;5072196;28;20401;-68
2021/12/05 12:09:58;;;;;;;4.30;2.07;;;;;;;7.65;60.42;95350.41;5072096;28;20470;-68
2021/12/05 12:12:26;;;;;;;3.10;1.70;;;;;;;8.26;57.72;95336.31;5072021;28;20870;-67
2021/12/05 12:14:53;;;;;;;2.50;1.53;;;;;;;8.64;57.29;95330.94;5071642;28;20460;-69
2021/12/05 12:17:23;;;;;;;3.40;1.73;;;;;;;7.44;59.53;95338.06;5071633;28;20432;-68
2021/12/05 12:19:52;;;;;;;4.03;2.40;;;;;;;7.95;58.28;95337.34;5061759;28;20457;-68
2021/12/05 12:22:26;;;;;;;5.43;2.17;;;;;;;6.78;61.71;95349.03;5066655;28;20460;-69
2021/12/05 12:24:58;;;;;;;1.70;1.30;;;;;;;7.43;59.90;95344.28;5057916;28;20514;-68
2021/12/05 12:27:25;;;;;;;2.57;1.50;;;;;;;7.41;59.89;95341.84;5072703;28;20439;-69
2021/12/05 12:29:55;;;;;;;1.83;1.40;;;;;;;7.37;59.77;95345.78;5071484;28;20476;-68
2021/12/05 12:32:27;;;;;;;1.50;1.00;;;;;;;7.07;59.45;95343.09;5063988;28;20511;-68
2021/12/05 12:35:08;;;;;;;1.33;1.23;;;;;;;7.25;58.79;95344.59;5069480;28;20534;-69
2021/12/05 12:37:54;;;;;;;2.07;1.17;;;;;;;7.82;57.29;95349.22;5071571;28;20432;-66
2021/12/05 12:40:43;;;;;;;2.53;1.40;;;;;;;7.75;57.29;95342.31;5060313;28;20500;-68
2021/12/05 12:43:42;;;;;;;1.93;1.30;;;;;;;8.07;57.55;95353.34;5056096;28;20964;-68
2021/12/05 12:46:24;;;;;;;1.73;0.97;;;;;;;8.06;56.86;95343.91;5057444;28;20413;-67
2021/12/05 12:48:59;;;;;;;2.33;1.00;;;;;;;7.13;58.50;95360.66;5069206;28;20468;-68
2021/12/05 12:51:32;;;;;;;4.00;1.80;;;;;;;6.64;59.93;95355.81;5070340;28;20455;-67
2021/12/05 12:54:11;;;;;;;1.80;1.53;;;;;;;7.59;58.18;95356.31;5068048;28;20439;-69
2021/12/05 12:56:40;;;;;;;1.57;1.20;;;;;;;7.06;58.40;95357.94;5064830;28;20421;-68
2021/12/05 12:59:11;;;;;;;3.40;1.30;;;;;;;7.19;58.97;95357.34;5052987;28;20471;-68
2021/12/05 13:02:15;;;;;;;3.20;1.80;;;;;;;7.92;59.30;95351.56;5070501;28;20893;-67
2021/12/05 13:10:25;;;;;;;1.40;1.30;;;;;;;9.07;53.74;95338.75;5075423;28;20910;-68
2021/12/05 13:12:57;;;;;;;2.77;1.40;;;;;;;9.56;53.27;95340.72;5073678;28;20547;-69
2021/12/05 13:15:44;;;;;;;3.90;2.30;;;;;;;9.01;53.83;95343.94;5075303;28;20451;-68
2021/12/05 13:18:13;;;;;;;2.77;1.50;;;;;;;8.94;54.08;95336.03;5060941;28;20452;-68
2021/12/05 13:20:43;;;;;;;3.50;1.50;;;;;;;9.71;51.31;95333.56;5074072;28;20511;-68
2021/12/05 13:23:14;;;;;;;1.70;1.33;;;;;;;9.78;51.34;95339.63;5063030;28;20437;-68
2021/12/05 13:26:10;;;;;;;5.23;2.17;;;;;;;8.15;54.33;95343.63;5060460;28;20428;-68
2021/12/05 13:28:48;;;;;;;1.80;1.30;;;;;;;8.73;53.88;95342.88;5073110;28;20507;-67
2021/12/05 13:31:31;;;;;;;1.93;1.70;;;;;;;8.55;55.09;95338.06;5074453;28;20994;-68
2021/12/05 13:34:16;;;;;;;2.60;1.50;;;;;;;8.75;54.02;95343.50;5074523;28;20837;-67
2021/12/05 13:36:46;;;;;;;3.73;1.23;;;;;;;8.29;54.44;95349.00;5074503;28;20524;-68
2021/12/05 13:39:54;;;;;;;2.77;1.30;;;;;;;7.55;57.62;95353.25;5074327;28;20890;-68
2021/12/05 13:42:39;;;;;;;1.80;1.30;;;;;;;8.02;55.79;95359.13;5071405;28;20460;-68
2021/12/05 13:45:15;;;;;;;2.23;1.90;;;;;;;8.01;56.15;95362.72;5049061;28;20423;-67
2021/12/05 13:47:57;;;;;;;1.60;1.50;;;;;;;8.25;55.24;95352.97;5063568;28;20429;-68
2021/12/05 13:50:38;;;;;;;3.50;2.20;;;;;;;8.27;55.71;95354.38;5071575;28;20420;-66
2021/12/05 13:53:05;;;;;;;3.30;1.67;;;;;;;8.26;55.32;95359.81;5039543;28;20824;-66
2021/12/05 13:55:39;;;;;;;1.90;1.60;;;;;;;8.36;54.92;95360.31;5041698;28;20417;-68
2021/12/05 13:58:21;;;;;;;3.83;1.93;;;;;;;8.45;55.67;95366.25;5030099;28;20534;-68
2021/12/05 14:00:59;;;;;;;2.07;1.67;;;;;;;8.50;55.26;95363.94;5069360;28;20933;-69
2021/12/05 14:03:38;;;;;;;1.53;1.20;;;;;;;8.52;55.02;95369.75;5067134;28;20424;-68
2021/12/05 14:06:29;;;;;;;8.13;1.50;;;;;;;8.50;54.41;95366.53;5051992;28;20424;-69
2021/12/05 14:09:22;;;;;;;2.00;1.27;;;;;;;8.54;54.07;95367.78;5070850;28;20429;-68
2021/12/05 14:11:53;;;;;;;1.20;0.93;;;;;;;8.03;54.64;95376.41;5045988;28;20453;-66
2021/12/05 14:14:34;;;;;;;2.70;1.00;;;;;;;8.02;55.52;95382.59;5059703;28;20832;-67
2021/12/05 14:17:04;;;;;;;2.63;1.30;;;;;;;8.17;54.98;95376.56;5055219;28;20421;-68
2021/12/05 14:19:35;;;;;;;1.40;0.93;;;;;;;8.13;54.72;95389.13;5071075;28;20456;-67
2021/12/05 14:22:08;;;;;;;1.37;1.27;;;;;;;8.37;53.53;95382.81;5054530;28;20437;-67
2021/12/05 14:24:38;;;;;;;1.87;1.70;;;;;;;8.44;54.04;95383.69;5060440;28;20426;-66
2021/12/05 14:27:08;;;;;;;2.17;1.60;;;;;;;8.42;53.72;95383.09;5056902;28;20923;-69
2021/12/05 14:29:40;;;;;;;1.40;1.20;;;;;;;8.32;54.57;95394.81;5074277;28;20417;-68
2021/12/05 14:32:12;;;;;;;6.37;4.30;;;;;;;8.04;54.92;95393.66;5073681;28;20436;-66
2021/12/05 14:34:40;;;;;;;32.17;15.87;;;;;;;8.03;55.18;95399.88;5074078;28;20425;-68
2021/12/05 14:37:11;;;;;;;9.23;6.50;;;;;;;8.03;55.68;95399.88;5074065;28;20425;-66
2021/12/05 14:39:42;;;;;;;9.00;5.80;;;;;;;8.13;55.34;95399.56;5073952;28;20460;-67
2021/12/05 14:42:18;;;;;;;13.43;7.70;;;;;;;7.96;56.29;95412.00;5073472;28;21037;-67
2021/12/05 14:44:50;;;;;;;8.90;6.53;;;;;;;7.88;56.27;95402.47;5072918;28;20416;-69
2021/12/05 14:47:28;;;;;;;3.83;2.37;;;;;;;7.87;56.79;95398.25;5054746;28;20417;-68
2021/12/05 14:49:59;;;;;;;2.30;2.10;;;;;;;7.95;56.52;95407.78;5066203;28;20424;-67
2021/12/05 14:52:31;;;;;;;3.47;1.77;;;;;;;7.88;55.92;95414.69;5075029;28;20598;-67
2021/12/05 14:54:58;;;;;;;3.90;2.47;;;;;;;7.92;56.37;95410.75;5052134;28;20433;-68
2021/12/05 14:57:28;;;;;;;3.47;2.07;;;;;;;7.83;55.84;95407.41;5075508;28;20436;-68
2021/12/05 15:00:11;;;;;;;6.20;3.30;;;;;;;7.91;56.68;95416.97;5075399;28;20460;-68
2021/12/05 15:02:38;;;;;;;2.30;1.60;;;;;;;7.86;56.17;95419.28;5068622;28;20437;-69
2021/12/05 15:05:08;;;;;;;7.90;3.10;;;;;;;7.75;56.76;95429.16;5080547;28;20417;-68
2021/12/05 15:07:35;;;;;;;6.13;4.40;;;;;;;7.81;56.95;95436.28;5080973;28;20436;-67
2021/12/05 15:10:01;;;;;;;7.53;3.83;;;;;;;7.82;56.64;95432.66;5065671;28;20459;-68
2021/12/05 15:12:30;;;;;;;5.40;3.73;;;;;;;7.81;56.68;95438.88;5076985;28;20432;-68
2021/12/05 15:14:59;;;;;;;5.17;3.63;;;;;;;7.77;57.59;95437.63;5075998;28;20186;-68
2021/12/05 15:17:31;;;;;;;10.50;3.13;;;;;;;7.78;57.04;95436.66;5075755;28;20485;-66
2021/12/05 15:20:09;;;;;;;6.30;3.50;;;;;;;7.77;57.21;95447.22;5061390;28;20456;-68
2021/12/05 15:22:37;;;;;;;3.87;2.70;;;;;;;7.73;57.05;95449.41;5072822;28;20464;-68
2021/12/05 15:25:13;;;;;;;6.50;3.47;;;;;;;7.64;57.39;95455.69;5052349;28;20910;-68
2021/12/05 15:27:41;;;;;;;4.30;2.90;;;;;;;7.60;57.63;95462.22;5080697;28;20429;-68
2021/12/05 15:30:33;;;;;;;3.60;2.90;;;;;;;7.62;58.12;95457.66;5035950;28;20422;-68
2021/12/05 15:33:03;;;;;;;5.57;3.60;;;;;;;7.62;57.73;95462.88;5054217;28;20963;-66
2021/12/05 15:35:31;;;;;;;29.13;17.73;;;;;;;7.61;57.81;95461.25;5061353;28;20919;-67
2021/12/05 15:38:23;;;;;;;3.90;2.60;;;;;;;7.43;58.16;95461.56;5072962;28;20443;-65
2021/12/05 15:40:53;;;;;;;13.67;4.57;;;;;;;7.49;57.72;95468.69;5071285;28;20432;-68
2021/12/05 15:43:25;;;;;;;4.43;3.30;;;;;;;7.52;58.36;95463.94;5075171;28;20494;-68
2021/12/05 15:45:54;;;;;;;6.43;3.40;;;;;;;7.52;58.43;95469.13;5072770;28;20421;-68
2021/12/05 15:48:28;;;;;;;9.10;5.67;;;;;;;7.49;58.19;95472.09;5069830;28;20416;-67
2021/12/05 15:50:57;;;;;;;7.13;4.43;;;;;;;7.53;58.17;95470.75;5072310;28;20436;-68
2021/12/05 15:53:25;;;;;;;6.97;4.00;;;;;;;7.48;58.56;95472.28;5060166;28;20486;-68
2021/12/05 15:55:58;;;;;;;4.13;3.73;;;;;;;7.46;58.55;95476.84;5050261;28;20493;-68
2021/12/05 15:58:31;;;;;;;7.53;4.50;;;;;;;7.45;58.83;95476.03;5057596;28;20453;-68
2021/12/05 16:01:21;;;;;;;10.40;5.07;;;;;;;7.28;58.91;95477.94;5070014;28;20413;-68
2021/12/05 16:03:55;;;;;;;6.40;4.03;;;;;;;7.16;59.82;95472.34;5072051;28;20446;-68
2021/12/05 16:06:37;;;;;;;6.90;3.87;;;;;;;7.05;59.94;95483.16;5072511;28;20796;-68
2021/12/05 16:09:30;;;;;;;6.80;4.73;;;;;;;7.02;60.41;95486.91;5071782;28;20416;-67
2021/12/05 16:12:25;;;;;;;12.17;5.50;;;;;;;7.10;60.01;95491.25;5058384;28;21226;-68
2021/12/05 16:14:56;;;;;;;8.03;5.10;;;;;;;7.19;59.66;95490.22;4951381;29;20431;-68
2021/12/05 16:17:26;;;;;;;10.30;4.87;;;;;;;7.22;59.03;95495.06;4951846;29;20434;-67
2021/12/05 16:20:06;;;;;;;6.83;4.10;;;;;;;7.27;59.45;95491.16;4951824;28;20489;-68
2021/12/05 16:22:31;;;;;;;8.40;5.07;;;;;;;7.21;59.30;95496.06;4935549;29;20464;-67
2021/12/05 16:24:57;;;;;;;7.87;5.13;;;;;;;7.01;59.97;95487.06;4945113;29;20430;-67
2021/12/05 16:27:24;;;;;;;10.40;4.70;;;;;;;7.01;60.17;95494.91;4951631;29;20545;-68
2021/12/05 16:29:50;;;;;;;14.07;5.30;;;;;;;7.10;59.66;95501.66;4951318;29;20434;-69
2021/12/05 16:32:19;;;;;;;10.00;6.83;;;;;;;6.88;61.20;95498.88;4951606;29;20458;-67
2021/12/05 16:34:51;;;;;;;8.83;5.47;;;;;;;6.83;60.79;95501.16;4951062;28;20293;-68
2021/12/05 16:37:18;;;;;;;11.53;5.90;;;;;;;6.76;61.26;95495.03;4951010;28;20898;-69
2021/12/05 16:39:49;;;;;;;9.93;6.37;;;;;;;6.86;61.43;95495.63;4951273;28;20466;-67
2021/12/05 16:42:19;;;;;;;9.00;6.17;;;;;;;6.92;61.04;95504.53;4950771;28;20450;-66
2021/12/05 16:44:58;;;;;;;14.33;9.00;;;;;;;6.93;60.55;95494.94;4951324;29;21011;-68
2021/12/05 16:47:31;;;;;;;10.90;7.10;;;;;;;6.82;61.47;95494.31;4954251;28;20464;-68
2021/12/05 16:50:00;;;;;;;26.67;14.43;;;;;;;6.88;61.17;95508.47;4970114;28;20440;-68
2021/12/05 16:52:33;;;;;;;22.97;12.73;;;;;;;6.87;60.73;95518.06;5066291;28;20439;-69
2021/12/05 16:55:11;;;;;;;12.27;7.70;;;;;;;6.88;61.09;95514.50;5057685;28;20415;-67
2021/12/05 16:58:04;;;;;;;16.33;7.83;;;;;;;6.90;61.19;95509.94;5071129;28;20507;-69
2021/12/05 17:00:33;;;;;;;9.33;6.90;;;;;;;6.89;61.19;95516.13;5072035;28;20583;-68
2021/12/05 17:03:02;;;;;;;11.80;7.40;;;;;;;6.74;61.47;95517.81;5070133;28;20432;-68
2021/12/05 17:05:33;;;;;;;18.77;11.87;;;;;;;6.66;61.63;95528.25;5071689;28;20907;-68
2021/12/05 17:08:13;;;;;;;19.13;13.23;;;;;;;6.70;61.64;95532.13;5062155;28;20420;-68
2021/12/05 17:11:02;;;;;;;15.43;11.03;;;;;;;6.79;61.80;95531.16;5071570;28;20424;-69
2021/12/05 17:13:43;;;;;;;13.50;10.57;;;;;;;6.67;62.17;95532.50;5071421;28;20435;-67
2021/12/05 17:16:28;;;;;;;16.57;10.13;;;;;;;6.58;62.54;95527.31;5071325;28;20455;-70
2021/12/05 17:18:58;;;;;;;14.43;8.80;;;;;;;6.54;62.84;95528.63;5071120;28;20454;-68
2021/12/05 17:21:38;;;;;;;11.60;7.97;;;;;;;6.66;62.42;95528.25;5068311;28;20444;-68
2021/12/05 17:24:12;;;;;;;13.73;7.50;;;;;;;6.66;62.03;95526.47;5057084;28;20425;-66
2021/12/05 17:26:53;;;;;;;10.23;6.47;;;;;;;6.66;62.07;95541.28;5047223;28;20451;-67
2021/12/05 17:29:34;;;;;;;9.47;7.00;;;;;;;6.63;62.61;95546.81;5071336;28;20815;-69
2021/12/05 17:32:20;;;;;;;13.13;7.83;;;;;;;6.65;62.37;95547.47;5059132;28;20491;-68
2021/12/05 17:34:58;;;;;;;12.23;8.57;;;;;;;6.65;62.31;95550.06;5067199;28;20444;-67
2021/12/05 17:37:27;;;;;;;21.90;12.13;;;;;;;6.61;62.19;95550.41;5070761;28;20459;-67
2021/12/05 17:39:53;;;;;;;17.33;11.80;;;;;;;6.54;62.92;95543.44;5069264;28;20950;-69
2021/12/05 17:42:21;;;;;;;17.80;11.10;;;;;;;6.54;62.67;95544.25;5071026;28;20459;-66
2021/12/05 17:44:49;;;;;;;14.63;9.87;;;;;;;6.51;62.74;95543.75;5070741;28;20420;-68